2026/07/21

Sensor Date Temp./Hum.
h4-hermonville 21-07-2026 - 23:58 20.3°C / 51%
h2-hermonville 21-07-2026 - 23:54 22.5°C / 46%
h1-hermonville 21-07-2026 - 23:54 18.3°C / 58%
h3-hermonville 21-07-2026 - 23:50 19.9°C / 52%
h4-hermonville 21-07-2026 - 23:48 20.5°C / 49%
h2-hermonville 21-07-2026 - 23:44 22.7°C / 45.5%
h1-hermonville 21-07-2026 - 23:44 18.7°C / 55.5%
h3-hermonville 21-07-2026 - 23:40 20.1°C / 50%
h4-hermonville 21-07-2026 - 23:38 20.7°C / 48%
h2-hermonville 21-07-2026 - 23:34 22.8°C / 44%
h1-hermonville 21-07-2026 - 23:34 19.1°C / 53%
h3-hermonville 21-07-2026 - 23:30 20.4°C / 48.5%
h4-hermonville 21-07-2026 - 23:28 20.8°C / 46.5%
h2-hermonville 21-07-2026 - 23:24 23°C / 44%
h1-hermonville 21-07-2026 - 23:24 19.3°C / 51%
h3-hermonville 21-07-2026 - 23:20 20.5°C / 47.5%
h4-hermonville 21-07-2026 - 23:18 21.1°C / 46%
h2-hermonville 21-07-2026 - 23:14 23°C / 43.5%
h1-hermonville 21-07-2026 - 23:14 19.6°C / 50.5%
h3-hermonville 21-07-2026 - 23:10 20.7°C / 47%
h4-hermonville 21-07-2026 - 23:08 21.1°C / 45.5%
h2-hermonville 21-07-2026 - 23:04 23.2°C / 42%
h1-hermonville 21-07-2026 - 23:04 19.7°C / 50.5%
h3-hermonville 21-07-2026 - 23:00 20.9°C / 47%
h4-hermonville 21-07-2026 - 22:58 21.2°C / 45.5%
h2-hermonville 21-07-2026 - 22:54 23.3°C / 42.5%
h1-hermonville 21-07-2026 - 22:54 19.8°C / 50%
h3-hermonville 21-07-2026 - 22:50 21°C / 46.5%
h4-hermonville 21-07-2026 - 22:48 21.2°C / 45.5%
h2-hermonville 21-07-2026 - 22:44 23.3°C / 42.5%
h1-hermonville 21-07-2026 - 22:44 19.9°C / 49.5%
h3-hermonville 21-07-2026 - 22:40 21°C / 46.5%
h4-hermonville 21-07-2026 - 22:38 21.4°C / 45%
h2-hermonville 21-07-2026 - 22:34 23.5°C / 42.5%
h1-hermonville 21-07-2026 - 22:34 20°C / 49%
h3-hermonville 21-07-2026 - 22:30 21.1°C / 46%
h4-hermonville 21-07-2026 - 22:28 21.5°C / 44.5%
h2-hermonville 21-07-2026 - 22:24 23.7°C / 41.5%
h1-hermonville 21-07-2026 - 22:24 20.1°C / 48.5%
h3-hermonville 21-07-2026 - 22:20 21.2°C / 45%
h4-hermonville 21-07-2026 - 22:18 21.6°C / 44%
h2-hermonville 21-07-2026 - 22:14 23.9°C / 41%
h1-hermonville 21-07-2026 - 22:14 20.1°C / 47.5%
h3-hermonville 21-07-2026 - 22:10 21.4°C / 44%
h4-hermonville 21-07-2026 - 22:08 21.6°C / 43.5%
h1-hermonville 21-07-2026 - 22:04 20.4°C / 46%
h3-hermonville 21-07-2026 - 22:00 21.6°C / 43%
h4-hermonville 21-07-2026 - 21:58 21.7°C / 42.5%
h2-hermonville 21-07-2026 - 21:54 24.2°C / 38%
h1-hermonville 21-07-2026 - 21:54 20.7°C / 45%
h3-hermonville 21-07-2026 - 21:50 21.9°C / 42%
h4-hermonville 21-07-2026 - 21:48 21.8°C / 42.5%
h2-hermonville 21-07-2026 - 21:44 24.2°C / 39.5%
h1-hermonville 21-07-2026 - 21:44 21°C / 44%
h3-hermonville 21-07-2026 - 21:40 22.1°C / 41.5%
h4-hermonville 21-07-2026 - 21:38 21.9°C / 42%
h2-hermonville 21-07-2026 - 21:34 24.3°C / 38.5%
h1-hermonville 21-07-2026 - 21:34 21.3°C / 43.5%
h4-hermonville 21-07-2026 - 21:28 22°C / 41%
h1-hermonville 21-07-2026 - 21:24 21.5°C / 42.5%
h3-hermonville 21-07-2026 - 21:20 22.5°C / 40%
h4-hermonville 21-07-2026 - 21:18 22.3°C / 40.5%
h2-hermonville 21-07-2026 - 21:14 24.3°C / 38.5%
h1-hermonville 21-07-2026 - 21:14 21.8°C / 41.5%
h3-hermonville 21-07-2026 - 21:10 22.7°C / 39%
h4-hermonville 21-07-2026 - 21:08 22.4°C / 40%
h2-hermonville 21-07-2026 - 21:04 24.4°C / 38%
h1-hermonville 21-07-2026 - 21:04 22°C / 40.5%
h3-hermonville 21-07-2026 - 21:00 23°C / 38.5%
h4-hermonville 21-07-2026 - 20:58 22.5°C / 39%
h2-hermonville 21-07-2026 - 20:54 24.5°C / 38%
h1-hermonville 21-07-2026 - 20:54 22.3°C / 40%
h3-hermonville 21-07-2026 - 20:50 23.2°C / 38%
h4-hermonville 21-07-2026 - 20:48 22.6°C / 39%
h2-hermonville 21-07-2026 - 20:44 24.7°C / 37.5%
h1-hermonville 21-07-2026 - 20:44 22.6°C / 39.5%
h3-hermonville 21-07-2026 - 20:40 23.3°C / 38%
h4-hermonville 21-07-2026 - 20:38 22.9°C / 38.5%
h2-hermonville 21-07-2026 - 20:34 24.7°C / 37.5%
h1-hermonville 21-07-2026 - 20:34 22.7°C / 39%
h3-hermonville 21-07-2026 - 20:30 23.4°C / 37.5%
h4-hermonville 21-07-2026 - 20:28 23°C / 38.5%
h2-hermonville 21-07-2026 - 20:24 25°C / 36.5%
h1-hermonville 21-07-2026 - 20:24 23.1°C / 38.5%
h3-hermonville 21-07-2026 - 20:20 23.5°C / 37%
h4-hermonville 21-07-2026 - 20:18 23°C / 37.5%
h2-hermonville 21-07-2026 - 20:14 25.4°C / 35.5%
h1-hermonville 21-07-2026 - 20:14 23°C / 37.5%
h3-hermonville 21-07-2026 - 20:10 23.8°C / 36%
h4-hermonville 21-07-2026 - 20:08 23.2°C / 37%
h2-hermonville 21-07-2026 - 20:04 25.9°C / 34.5%
h1-hermonville 21-07-2026 - 20:04 23.2°C / 36.5%
h3-hermonville 21-07-2026 - 20:00 23.8°C / 35.5%
h4-hermonville 21-07-2026 - 19:58 23.2°C / 36.5%
h2-hermonville 21-07-2026 - 19:54 27.9°C / 31.5%
h1-hermonville 21-07-2026 - 19:54 23.3°C / 36.5%
h3-hermonville 21-07-2026 - 19:50 24°C / 35.5%
h4-hermonville 21-07-2026 - 19:48 23.2°C / 36.5%
h2-hermonville 21-07-2026 - 19:44 29.3°C / 29.5%
h1-hermonville 21-07-2026 - 19:44 23.3°C / 36%
h3-hermonville 21-07-2026 - 19:40 24.1°C / 35%
h4-hermonville 21-07-2026 - 19:38 23.3°C / 37%
h2-hermonville 21-07-2026 - 19:34 30°C / 29%
h1-hermonville 21-07-2026 - 19:34 23.4°C / 37%
h3-hermonville 21-07-2026 - 19:30 24.1°C / 35.5%
h4-hermonville 21-07-2026 - 19:28 23.5°C / 36.5%
h2-hermonville 21-07-2026 - 19:24 29.5°C / 29%
h1-hermonville 21-07-2026 - 19:24 23.4°C / 36.5%
h3-hermonville 21-07-2026 - 19:20 24.2°C / 35.5%
h2-hermonville 21-07-2026 - 19:14 29.6°C / 29.5%
h1-hermonville 21-07-2026 - 19:14 23.5°C / 36.5%
h3-hermonville 21-07-2026 - 19:10 24.2°C / 35%
h4-hermonville 21-07-2026 - 19:08 23.6°C / 36%
h2-hermonville 21-07-2026 - 19:04 29.5°C / 29.5%
h1-hermonville 21-07-2026 - 19:04 23.6°C / 35.5%
h3-hermonville 21-07-2026 - 19:00 24.2°C / 35.5%
h4-hermonville 21-07-2026 - 18:58 23.7°C / 36%
h2-hermonville 21-07-2026 - 18:54 29.9°C / 28.5%
h1-hermonville 21-07-2026 - 18:54 23.7°C / 36%
h3-hermonville 21-07-2026 - 18:50 24.3°C / 35%
h4-hermonville 21-07-2026 - 18:48 23.6°C / 35.5%
h2-hermonville 21-07-2026 - 18:44 30°C / 29%
h1-hermonville 21-07-2026 - 18:44 23.7°C / 35.5%
h3-hermonville 21-07-2026 - 18:40 24.4°C / 35%
h4-hermonville 21-07-2026 - 18:38 23.7°C / 36%
h2-hermonville 21-07-2026 - 18:34 28.5°C / 31.5%
h1-hermonville 21-07-2026 - 18:34 23.7°C / 36.5%
h3-hermonville 21-07-2026 - 18:30 24.3°C / 35%
h4-hermonville 21-07-2026 - 18:28 23.7°C / 36.5%
h2-hermonville 21-07-2026 - 18:24 30.8°C / 28%
h1-hermonville 21-07-2026 - 18:24 23.8°C / 36.5%
h3-hermonville 21-07-2026 - 18:20 24.3°C / 35%
h4-hermonville 21-07-2026 - 18:18 23.7°C / 36%
h2-hermonville 21-07-2026 - 18:14 30.1°C / 29%
h1-hermonville 21-07-2026 - 18:14 23.7°C / 36%
h3-hermonville 21-07-2026 - 18:10 24.6°C / 34.5%
h4-hermonville 21-07-2026 - 18:08 23.7°C / 36.5%
h2-hermonville 21-07-2026 - 18:04 29.2°C / 30%
h1-hermonville 21-07-2026 - 18:04 23.6°C / 36%
h3-hermonville 21-07-2026 - 18:00 24.3°C / 34.5%
h4-hermonville 21-07-2026 - 17:58 23.6°C / 36%
h2-hermonville 21-07-2026 - 17:54 29.4°C / 29.5%
h1-hermonville 21-07-2026 - 17:54 23.8°C / 36%
h3-hermonville 21-07-2026 - 17:50 24.6°C / 34%
h4-hermonville 21-07-2026 - 17:48 23.7°C / 36%
h2-hermonville 21-07-2026 - 17:44 29.4°C / 28.5%
h1-hermonville 21-07-2026 - 17:44 23.5°C / 36.5%
h3-hermonville 21-07-2026 - 17:40 24.7°C / 34.5%
h4-hermonville 21-07-2026 - 17:38 23.7°C / 36.5%
h2-hermonville 21-07-2026 - 17:34 27.5°C / 32%
h1-hermonville 21-07-2026 - 17:34 23.9°C / 36%
h3-hermonville 21-07-2026 - 17:30 24.6°C / 35%
h4-hermonville 21-07-2026 - 17:28 23.7°C / 36.5%
h2-hermonville 21-07-2026 - 17:24 27.5°C / 33%
h1-hermonville 21-07-2026 - 17:24 24°C / 36%
h3-hermonville 21-07-2026 - 17:20 24.7°C / 35.5%
h4-hermonville 21-07-2026 - 17:18 23.7°C / 37%
h2-hermonville 21-07-2026 - 17:14 29.3°C / 30.5%
h1-hermonville 21-07-2026 - 17:14 23.7°C / 37.5%
h3-hermonville 21-07-2026 - 17:10 24.6°C / 36%
h4-hermonville 21-07-2026 - 17:08 23.7°C / 37%
h2-hermonville 21-07-2026 - 17:04 29.9°C / 30%
h1-hermonville 21-07-2026 - 17:04 23.8°C / 37.5%
h3-hermonville 21-07-2026 - 17:00 24.6°C / 36%
h4-hermonville 21-07-2026 - 16:58 23.6°C / 36.5%
h2-hermonville 21-07-2026 - 16:54 29.5°C / 30.5%
h1-hermonville 21-07-2026 - 16:54 23.7°C / 37%
h3-hermonville 21-07-2026 - 16:50 24.8°C / 34.5%
h4-hermonville 21-07-2026 - 16:48 23.7°C / 37%
h2-hermonville 21-07-2026 - 16:44 28.4°C / 32.5%
h1-hermonville 21-07-2026 - 16:44 23.9°C / 37.5%
h3-hermonville 21-07-2026 - 16:40 24.5°C / 36.5%
h4-hermonville 21-07-2026 - 16:38 23.6°C / 38%
h2-hermonville 21-07-2026 - 16:34 27.9°C / 33.5%
h1-hermonville 21-07-2026 - 16:34 23.4°C / 38%
h3-hermonville 21-07-2026 - 16:30 24.3°C / 37%
h2-hermonville 21-07-2026 - 16:24 27.3°C / 34%
h1-hermonville 21-07-2026 - 16:24 23.4°C / 38%
h3-hermonville 21-07-2026 - 16:20 24.3°C / 35.5%
h4-hermonville 21-07-2026 - 16:18 23.4°C / 38.5%
h2-hermonville 21-07-2026 - 16:14 26.4°C / 36%
h1-hermonville 21-07-2026 - 16:14 23.1°C / 39.5%
h3-hermonville 21-07-2026 - 16:10 24.2°C / 36.5%
h2-hermonville 21-07-2026 - 16:04 25.5°C / 37.5%
h1-hermonville 21-07-2026 - 16:04 23.2°C / 39%
h3-hermonville 21-07-2026 - 16:00 24.3°C / 37.5%
h2-hermonville 21-07-2026 - 15:54 25.7°C / 38%
h1-hermonville 21-07-2026 - 15:54 23.1°C / 40.5%
h3-hermonville 21-07-2026 - 15:50 24°C / 39%
h2-hermonville 21-07-2026 - 15:44 25.5°C / 37.5%
h3-hermonville 21-07-2026 - 15:40 24.3°C / 38%
h1-hermonville 21-07-2026 - 15:34 22.6°C / 42%
h3-hermonville 21-07-2026 - 15:30 24.2°C / 38.5%
h2-hermonville 21-07-2026 - 15:24 24.5°C / 39%
h1-hermonville 21-07-2026 - 15:24 22.7°C / 40.5%
h3-hermonville 21-07-2026 - 15:20 24°C / 38.5%
h2-hermonville 21-07-2026 - 15:14 24.2°C / 40%
h1-hermonville 21-07-2026 - 15:14 22.5°C / 42%
h3-hermonville 21-07-2026 - 15:10 23.6°C / 39.5%
h4-hermonville 21-07-2026 - 15:08 23.1°C / 40%
h2-hermonville 21-07-2026 - 15:04 24.3°C / 41%
h1-hermonville 21-07-2026 - 15:04 22.4°C / 42%
h3-hermonville 21-07-2026 - 15:00 23.7°C / 39.5%
h4-hermonville 21-07-2026 - 14:58 23.1°C / 39.5%
h2-hermonville 21-07-2026 - 14:54 24.1°C / 40.5%
h1-hermonville 21-07-2026 - 14:54 22.3°C / 40.5%
h3-hermonville 21-07-2026 - 14:50 23.2°C / 41%
h4-hermonville 21-07-2026 - 14:48 23°C / 40%
h2-hermonville 21-07-2026 - 14:44 23.7°C / 42%
h1-hermonville 21-07-2026 - 14:44 22.1°C / 42.5%
h3-hermonville 21-07-2026 - 14:40 23.2°C / 40.5%
h4-hermonville 21-07-2026 - 14:38 23°C / 40.5%
h2-hermonville 21-07-2026 - 14:34 23.4°C / 42.5%
h1-hermonville 21-07-2026 - 14:34 22°C / 43%
h3-hermonville 21-07-2026 - 14:30 23°C / 41.5%
h1-hermonville 21-07-2026 - 14:24 21.6°C / 44.5%
h3-hermonville 21-07-2026 - 14:20 23.1°C / 40.5%
h4-hermonville 21-07-2026 - 14:18 22.9°C / 41%
h2-hermonville 21-07-2026 - 14:14 23.4°C / 42.5%
h1-hermonville 21-07-2026 - 14:14 21.7°C / 43.5%
h3-hermonville 21-07-2026 - 14:10 22.9°C / 42%
h4-hermonville 21-07-2026 - 14:08 22.9°C / 40.5%
h1-hermonville 21-07-2026 - 14:04 21.5°C / 46%
h3-hermonville 21-07-2026 - 14:00 23.1°C / 42%
h4-hermonville 21-07-2026 - 13:58 23.3°C / 40.5%
h2-hermonville 21-07-2026 - 13:54 23.3°C / 43.5%
h1-hermonville 21-07-2026 - 13:54 21.4°C / 45%
h3-hermonville 21-07-2026 - 13:50 22.8°C / 42.5%
h4-hermonville 21-07-2026 - 13:48 23.1°C / 40.5%
h2-hermonville 21-07-2026 - 13:44 23.3°C / 43.5%
h1-hermonville 21-07-2026 - 13:44 21.6°C / 45%
h3-hermonville 21-07-2026 - 13:40 22.5°C / 43.5%
h4-hermonville 21-07-2026 - 13:38 22.9°C / 41%
h2-hermonville 21-07-2026 - 13:34 22.9°C / 43%
h1-hermonville 21-07-2026 - 13:34 21.2°C / 45%
h3-hermonville 21-07-2026 - 13:30 22.4°C / 43.5%
h4-hermonville 21-07-2026 - 13:28 23.3°C / 41%
h2-hermonville 21-07-2026 - 13:24 22.8°C / 44%
h1-hermonville 21-07-2026 - 13:24 21.1°C / 46.5%
h3-hermonville 21-07-2026 - 13:20 22.2°C / 44%
h4-hermonville 21-07-2026 - 13:18 23.5°C / 40.5%
h2-hermonville 21-07-2026 - 13:14 22.9°C / 45%
h1-hermonville 21-07-2026 - 13:14 21.2°C / 46.5%
h3-hermonville 21-07-2026 - 13:10 22.4°C / 43%
h2-hermonville 21-07-2026 - 13:04 22.8°C / 45%
h1-hermonville 21-07-2026 - 13:04 21°C / 45.5%
h3-hermonville 21-07-2026 - 13:00 22.6°C / 44%
h4-hermonville 21-07-2026 - 12:58 23.9°C / 40.5%
h2-hermonville 21-07-2026 - 12:54 22.6°C / 47%
h1-hermonville 21-07-2026 - 12:54 21°C / 48%
h3-hermonville 21-07-2026 - 12:50 22.1°C / 44.5%
h4-hermonville 21-07-2026 - 12:48 23.7°C / 40.5%
h2-hermonville 21-07-2026 - 12:44 22.5°C / 47%
h1-hermonville 21-07-2026 - 12:44 21°C / 47.5%
h3-hermonville 21-07-2026 - 12:40 21.8°C / 46%
h4-hermonville 21-07-2026 - 12:38 24°C / 40.5%
h2-hermonville 21-07-2026 - 12:34 22.2°C / 47%
h1-hermonville 21-07-2026 - 12:34 20.7°C / 49%
h3-hermonville 21-07-2026 - 12:30 22°C / 46%
h4-hermonville 21-07-2026 - 12:28 24.5°C / 40%
h2-hermonville 21-07-2026 - 12:24 22°C / 48%
h1-hermonville 21-07-2026 - 12:24 20.7°C / 48.5%
h3-hermonville 21-07-2026 - 12:20 21.8°C / 47%
h4-hermonville 21-07-2026 - 12:18 24.8°C / 39%
h2-hermonville 21-07-2026 - 12:14 21.9°C / 50%
h1-hermonville 21-07-2026 - 12:14 20.5°C / 51%
h3-hermonville 21-07-2026 - 12:10 21.3°C / 49%
h4-hermonville 21-07-2026 - 12:08 26.7°C / 37%
h2-hermonville 21-07-2026 - 12:04 21.8°C / 51%
h1-hermonville 21-07-2026 - 12:04 20.4°C / 52%
h3-hermonville 21-07-2026 - 12:00 21.7°C / 49%
h4-hermonville 21-07-2026 - 11:58 27.9°C / 35.5%
h2-hermonville 21-07-2026 - 11:54 21.7°C / 49%
h1-hermonville 21-07-2026 - 11:54 20.5°C / 52%
h3-hermonville 21-07-2026 - 11:50 21.4°C / 50%
h4-hermonville 21-07-2026 - 11:48 29.6°C / 33%
h2-hermonville 21-07-2026 - 11:44 21.3°C / 52%
h1-hermonville 21-07-2026 - 11:44 20°C / 55%
h3-hermonville 21-07-2026 - 11:40 21°C / 52.5%
h4-hermonville 21-07-2026 - 11:38 30°C / 32%
h2-hermonville 21-07-2026 - 11:34 21.2°C / 53.5%
h1-hermonville 21-07-2026 - 11:34 19.8°C / 55%
h3-hermonville 21-07-2026 - 11:30 20.6°C / 54.5%
h4-hermonville 21-07-2026 - 11:28 30°C / 33%
h2-hermonville 21-07-2026 - 11:24 20.8°C / 54.5%
h1-hermonville 21-07-2026 - 11:24 19.3°C / 57%
h3-hermonville 21-07-2026 - 11:20 20.3°C / 55%
h4-hermonville 21-07-2026 - 11:18 29.9°C / 33.5%
h2-hermonville 21-07-2026 - 11:14 20.7°C / 55%
h1-hermonville 21-07-2026 - 11:14 19.2°C / 58%
h3-hermonville 21-07-2026 - 11:10 20°C / 55%
h4-hermonville 21-07-2026 - 11:08 30.3°C / 32.5%
h2-hermonville 21-07-2026 - 11:04 20.5°C / 54.5%
h1-hermonville 21-07-2026 - 11:04 18.8°C / 58.5%
h3-hermonville 21-07-2026 - 11:00 19.7°C / 56%
h4-hermonville 21-07-2026 - 10:58 30.3°C / 32.5%
h2-hermonville 21-07-2026 - 10:54 20.1°C / 56%
h1-hermonville 21-07-2026 - 10:54 18.6°C / 60.5%
h3-hermonville 21-07-2026 - 10:50 19.6°C / 56%
h4-hermonville 21-07-2026 - 10:48 30.5°C / 33%
h2-hermonville 21-07-2026 - 10:44 19.8°C / 56.5%
h1-hermonville 21-07-2026 - 10:44 17.9°C / 62.5%
h3-hermonville 21-07-2026 - 10:40 19.4°C / 57.5%
h2-hermonville 21-07-2026 - 10:34 19.9°C / 57.5%
h1-hermonville 21-07-2026 - 10:34 17.7°C / 63.5%
h3-hermonville 21-07-2026 - 10:30 19.2°C / 58%
h4-hermonville 21-07-2026 - 10:28 29.9°C / 33.5%
h2-hermonville 21-07-2026 - 10:24 19.5°C / 57.5%
h1-hermonville 21-07-2026 - 10:24 17.4°C / 63.5%
h3-hermonville 21-07-2026 - 10:20 19.1°C / 58.5%
h4-hermonville 21-07-2026 - 10:18 29.2°C / 35%
h2-hermonville 21-07-2026 - 10:14 19°C / 58.5%
h1-hermonville 21-07-2026 - 10:14 17.2°C / 64.5%
h3-hermonville 21-07-2026 - 10:10 18.7°C / 59.5%
h4-hermonville 21-07-2026 - 10:08 29.7°C / 34%
h2-hermonville 21-07-2026 - 10:04 18.8°C / 59.5%
h1-hermonville 21-07-2026 - 10:04 16.9°C / 64.5%
h3-hermonville 21-07-2026 - 10:00 18.5°C / 60%
h4-hermonville 21-07-2026 - 09:58 28.8°C / 35%
h2-hermonville 21-07-2026 - 09:54 18.3°C / 60.5%
h1-hermonville 21-07-2026 - 09:54 16.6°C / 67%
h3-hermonville 21-07-2026 - 09:50 18.2°C / 61%
h2-hermonville 21-07-2026 - 09:44 18.6°C / 61%
h1-hermonville 21-07-2026 - 09:44 16.2°C / 68%
h3-hermonville 21-07-2026 - 09:40 17.8°C / 61.5%
h4-hermonville 21-07-2026 - 09:38 28°C / 37%
h2-hermonville 21-07-2026 - 09:34 18°C / 61.5%
h1-hermonville 21-07-2026 - 09:34 16°C / 68.5%
h3-hermonville 21-07-2026 - 09:30 17.8°C / 62%
h4-hermonville 21-07-2026 - 09:28 27°C / 38.5%
h2-hermonville 21-07-2026 - 09:24 18.1°C / 61.5%
h1-hermonville 21-07-2026 - 09:24 15.5°C / 70%
h3-hermonville 21-07-2026 - 09:20 17.7°C / 62.5%
h4-hermonville 21-07-2026 - 09:18 26.2°C / 40%
h2-hermonville 21-07-2026 - 09:14 17.6°C / 62.5%
h1-hermonville 21-07-2026 - 09:14 15.5°C / 71%
h3-hermonville 21-07-2026 - 09:10 17.5°C / 63.5%
h4-hermonville 21-07-2026 - 09:08 25.5°C / 42%
h2-hermonville 21-07-2026 - 09:04 17.8°C / 62%
h1-hermonville 21-07-2026 - 09:04 15°C / 72.5%
h3-hermonville 21-07-2026 - 09:00 17.1°C / 64%
h4-hermonville 21-07-2026 - 08:58 24.8°C / 43.5%
h2-hermonville 21-07-2026 - 08:54 17.4°C / 63.5%
h1-hermonville 21-07-2026 - 08:54 14.9°C / 72.5%
h3-hermonville 21-07-2026 - 08:50 17.1°C / 64%
h4-hermonville 21-07-2026 - 08:48 22.2°C / 49%
h2-hermonville 21-07-2026 - 08:44 16.9°C / 65%
h1-hermonville 21-07-2026 - 08:44 14.7°C / 73.5%
h3-hermonville 21-07-2026 - 08:40 16.7°C / 65.5%
h4-hermonville 21-07-2026 - 08:38 20.5°C / 53.5%
h2-hermonville 21-07-2026 - 08:34 16.7°C / 65.5%
h1-hermonville 21-07-2026 - 08:34 14.5°C / 73.5%
h3-hermonville 21-07-2026 - 08:30 16.5°C / 65.5%
h4-hermonville 21-07-2026 - 08:28 19.6°C / 55.5%
h2-hermonville 21-07-2026 - 08:24 16.6°C / 65.5%
h1-hermonville 21-07-2026 - 08:24 14.8°C / 73%
h3-hermonville 21-07-2026 - 08:20 16.4°C / 66%
h2-hermonville 21-07-2026 - 08:14 16.8°C / 64.5%
h1-hermonville 21-07-2026 - 08:14 14.2°C / 74.5%
h4-hermonville 21-07-2026 - 08:08 18.6°C / 57.5%
h2-hermonville 21-07-2026 - 08:04 17°C / 64%
h1-hermonville 21-07-2026 - 08:04 14.2°C / 74.5%
h3-hermonville 21-07-2026 - 08:00 16.1°C / 66.5%
h4-hermonville 21-07-2026 - 07:58 18.2°C / 59%
h2-hermonville 21-07-2026 - 07:54 16.4°C / 66%
h1-hermonville 21-07-2026 - 07:54 14.1°C / 75%
h3-hermonville 21-07-2026 - 07:50 16°C / 66.5%
h4-hermonville 21-07-2026 - 07:48 18.1°C / 59%
h2-hermonville 21-07-2026 - 07:44 16.5°C / 66%
h1-hermonville 21-07-2026 - 07:44 14°C / 75%
h3-hermonville 21-07-2026 - 07:40 15.8°C / 67%
h4-hermonville 21-07-2026 - 07:38 17.9°C / 59%
h2-hermonville 21-07-2026 - 07:34 15.9°C / 67%
h1-hermonville 21-07-2026 - 07:34 13.9°C / 75%
h3-hermonville 21-07-2026 - 07:30 15.6°C / 67.5%
h4-hermonville 21-07-2026 - 07:28 17.8°C / 59.5%
h2-hermonville 21-07-2026 - 07:24 16.1°C / 66%
h1-hermonville 21-07-2026 - 07:24 13.9°C / 75.5%
h3-hermonville 21-07-2026 - 07:20 15.6°C / 67.5%
h4-hermonville 21-07-2026 - 07:18 17.5°C / 60.5%
h2-hermonville 21-07-2026 - 07:14 16°C / 67.5%
h1-hermonville 21-07-2026 - 07:14 13.7°C / 76%
h3-hermonville 21-07-2026 - 07:10 15.6°C / 67.5%
h4-hermonville 21-07-2026 - 07:08 17.3°C / 61%
h2-hermonville 21-07-2026 - 07:04 15.5°C / 68.5%
h1-hermonville 21-07-2026 - 07:04 13.6°C / 76.5%
h3-hermonville 21-07-2026 - 07:00 15.4°C / 68%
h4-hermonville 21-07-2026 - 06:58 17.2°C / 61%
h2-hermonville 21-07-2026 - 06:54 15.8°C / 67%
h1-hermonville 21-07-2026 - 06:54 13.4°C / 77%
h3-hermonville 21-07-2026 - 06:50 15.4°C / 68%
h4-hermonville 21-07-2026 - 06:48 17°C / 61.5%
h2-hermonville 21-07-2026 - 06:44 15.7°C / 67%
h1-hermonville 21-07-2026 - 06:44 13.3°C / 77%
h3-hermonville 21-07-2026 - 06:40 15.4°C / 68%
h4-hermonville 21-07-2026 - 06:38 16.8°C / 62%
h2-hermonville 21-07-2026 - 06:34 16.3°C / 65.5%
h1-hermonville 21-07-2026 - 06:34 13.2°C / 77.5%
h3-hermonville 21-07-2026 - 06:30 15.3°C / 68%
h4-hermonville 21-07-2026 - 06:28 16.8°C / 62%
h2-hermonville 21-07-2026 - 06:24 16.1°C / 66%
h1-hermonville 21-07-2026 - 06:24 13.1°C / 78%
h3-hermonville 21-07-2026 - 06:20 15.4°C / 67.5%
h4-hermonville 21-07-2026 - 06:18 16.7°C / 62%
h2-hermonville 21-07-2026 - 06:14 16.3°C / 65.5%
h1-hermonville 21-07-2026 - 06:14 13.1°C / 78%
h3-hermonville 21-07-2026 - 06:10 15.4°C / 67.5%
h4-hermonville 21-07-2026 - 06:08 16.6°C / 62%
h2-hermonville 21-07-2026 - 06:04 15.9°C / 66.5%
h1-hermonville 21-07-2026 - 06:04 13.1°C / 78%
h3-hermonville 21-07-2026 - 06:00 15.6°C / 67%
h4-hermonville 21-07-2026 - 05:58 16.7°C / 62%
h2-hermonville 21-07-2026 - 05:54 15.9°C / 66%
h1-hermonville 21-07-2026 - 05:54 13.1°C / 77.5%
h3-hermonville 21-07-2026 - 05:50 15.5°C / 67%
h4-hermonville 21-07-2026 - 05:48 16.5°C / 62%
h2-hermonville 21-07-2026 - 05:44 16.1°C / 65.5%
h1-hermonville 21-07-2026 - 05:44 13.1°C / 77.5%
h3-hermonville 21-07-2026 - 05:40 15.4°C / 67.5%
h4-hermonville 21-07-2026 - 05:38 16.9°C / 61.5%
h2-hermonville 21-07-2026 - 05:34 16.6°C / 63.5%
h1-hermonville 21-07-2026 - 05:34 13.2°C / 77.5%
h3-hermonville 21-07-2026 - 05:30 15.6°C / 66.5%
h4-hermonville 21-07-2026 - 05:28 16.8°C / 62%
h2-hermonville 21-07-2026 - 05:24 17.1°C / 63%
h1-hermonville 21-07-2026 - 05:24 13.3°C / 77%
h3-hermonville 21-07-2026 - 05:20 15.7°C / 66.5%
h4-hermonville 21-07-2026 - 05:18 17.1°C / 61%
h2-hermonville 21-07-2026 - 05:14 16.4°C / 65%
h1-hermonville 21-07-2026 - 05:14 13.3°C / 77%
h3-hermonville 21-07-2026 - 05:10 15.8°C / 66%
h4-hermonville 21-07-2026 - 05:08 17.2°C / 60.5%
h2-hermonville 21-07-2026 - 05:04 16°C / 66%
h1-hermonville 21-07-2026 - 05:04 13.4°C / 76.5%
h3-hermonville 21-07-2026 - 05:00 15.8°C / 66%
h2-hermonville 21-07-2026 - 04:54 16.6°C / 64.5%
h1-hermonville 21-07-2026 - 04:54 13.4°C / 76%
h3-hermonville 21-07-2026 - 04:50 15.9°C / 65.5%
h4-hermonville 21-07-2026 - 04:48 17.2°C / 60%
h2-hermonville 21-07-2026 - 04:44 16.7°C / 64%
h1-hermonville 21-07-2026 - 04:44 13.5°C / 76%
h3-hermonville 21-07-2026 - 04:40 15.9°C / 65.5%
h4-hermonville 21-07-2026 - 04:38 17.3°C / 59.5%
h2-hermonville 21-07-2026 - 04:34 16.3°C / 65%
h1-hermonville 21-07-2026 - 04:34 13.7°C / 75.5%
h3-hermonville 21-07-2026 - 04:30 15.9°C / 65.5%
h4-hermonville 21-07-2026 - 04:28 17.4°C / 60%
h2-hermonville 21-07-2026 - 04:24 16.5°C / 65%
h1-hermonville 21-07-2026 - 04:24 13.8°C / 75%
h3-hermonville 21-07-2026 - 04:20 16°C / 65.5%
h4-hermonville 21-07-2026 - 04:18 17.4°C / 59.5%
h2-hermonville 21-07-2026 - 04:14 16.2°C / 65%
h1-hermonville 21-07-2026 - 04:14 13.8°C / 74.5%
h3-hermonville 21-07-2026 - 04:10 16.1°C / 65%
h4-hermonville 21-07-2026 - 04:08 17.6°C / 59%
h2-hermonville 21-07-2026 - 04:04 16.4°C / 64.5%
h1-hermonville 21-07-2026 - 04:04 13.9°C / 74.5%
h3-hermonville 21-07-2026 - 04:00 16.2°C / 64.5%
h2-hermonville 21-07-2026 - 03:54 16.9°C / 62.5%
h1-hermonville 21-07-2026 - 03:54 14.1°C / 74%
h3-hermonville 21-07-2026 - 03:50 16.3°C / 64%
h4-hermonville 21-07-2026 - 03:48 17.6°C / 59%
h2-hermonville 21-07-2026 - 03:44 16.9°C / 62.5%
h1-hermonville 21-07-2026 - 03:44 14°C / 73.5%
h3-hermonville 21-07-2026 - 03:40 16.4°C / 63.5%
h4-hermonville 21-07-2026 - 03:38 17.7°C / 59%
h2-hermonville 21-07-2026 - 03:34 16.9°C / 63.5%
h1-hermonville 21-07-2026 - 03:34 14.2°C / 73%
h3-hermonville 21-07-2026 - 03:30 16.6°C / 63%
h4-hermonville 21-07-2026 - 03:28 17.7°C / 58.5%
h2-hermonville 21-07-2026 - 03:24 16.7°C / 63%
h1-hermonville 21-07-2026 - 03:24 14.2°C / 72.5%
h3-hermonville 21-07-2026 - 03:20 16.6°C / 63%
h4-hermonville 21-07-2026 - 03:18 17.7°C / 58.5%
h2-hermonville 21-07-2026 - 03:14 16.9°C / 62.5%
h1-hermonville 21-07-2026 - 03:14 14.4°C / 72%
h3-hermonville 21-07-2026 - 03:10 16.7°C / 63%
h4-hermonville 21-07-2026 - 03:08 17.9°C / 58%
h2-hermonville 21-07-2026 - 03:04 17.3°C / 61.5%
h1-hermonville 21-07-2026 - 03:04 14.4°C / 71.5%
h3-hermonville 21-07-2026 - 03:00 16.7°C / 62%
h4-hermonville 21-07-2026 - 02:58 17.8°C / 58%
h2-hermonville 21-07-2026 - 02:54 17.6°C / 60%
h1-hermonville 21-07-2026 - 02:54 14.6°C / 71%
h3-hermonville 21-07-2026 - 02:50 16.7°C / 62%
h4-hermonville 21-07-2026 - 02:48 17.9°C / 57.5%
h2-hermonville 21-07-2026 - 02:44 17.6°C / 60%
h1-hermonville 21-07-2026 - 02:44 14.7°C / 71%
h3-hermonville 21-07-2026 - 02:40 16.9°C / 61.5%
h4-hermonville 21-07-2026 - 02:38 18.1°C / 56.5%
h2-hermonville 21-07-2026 - 02:34 17.5°C / 60.5%
h1-hermonville 21-07-2026 - 02:34 14.7°C / 70.5%
h3-hermonville 21-07-2026 - 02:30 16.9°C / 61.5%
h4-hermonville 21-07-2026 - 02:28 18.1°C / 56.5%
h2-hermonville 21-07-2026 - 02:24 17.8°C / 59%
h1-hermonville 21-07-2026 - 02:24 14.8°C / 70%
h3-hermonville 21-07-2026 - 02:20 17.2°C / 60.5%
h4-hermonville 21-07-2026 - 02:18 18°C / 57%
h2-hermonville 21-07-2026 - 02:14 17.9°C / 58.5%
h1-hermonville 21-07-2026 - 02:14 14.9°C / 69.5%
h3-hermonville 21-07-2026 - 02:10 17.2°C / 60.5%
h4-hermonville 21-07-2026 - 02:08 18.1°C / 56.5%
h2-hermonville 21-07-2026 - 02:04 18.2°C / 57.5%
h1-hermonville 21-07-2026 - 02:04 15°C / 69%
h3-hermonville 21-07-2026 - 02:00 17.2°C / 60%
h4-hermonville 21-07-2026 - 01:58 18.2°C / 56%
h2-hermonville 21-07-2026 - 01:54 18.6°C / 57%
h1-hermonville 21-07-2026 - 01:54 15°C / 68.5%
h3-hermonville 21-07-2026 - 01:50 17.3°C / 60%
h4-hermonville 21-07-2026 - 01:48 18.4°C / 55.5%
h2-hermonville 21-07-2026 - 01:44 18.7°C / 56.5%
h1-hermonville 21-07-2026 - 01:44 15.2°C / 68%
h3-hermonville 21-07-2026 - 01:40 17.2°C / 60%
h4-hermonville 21-07-2026 - 01:38 18.4°C / 55%
h2-hermonville 21-07-2026 - 01:34 18.7°C / 56%
h1-hermonville 21-07-2026 - 01:34 15.2°C / 67.5%
h3-hermonville 21-07-2026 - 01:30 17.5°C / 58.5%
h4-hermonville 21-07-2026 - 01:28 18.4°C / 55%
h2-hermonville 21-07-2026 - 01:24 18.7°C / 56%
h1-hermonville 21-07-2026 - 01:24 15.3°C / 67.5%
h3-hermonville 21-07-2026 - 01:20 17.6°C / 58%
h4-hermonville 21-07-2026 - 01:18 18.5°C / 54.5%
h2-hermonville 21-07-2026 - 01:14 18.4°C / 56%
h1-hermonville 21-07-2026 - 01:14 15.4°C / 66.5%
h3-hermonville 21-07-2026 - 01:10 17.8°C / 57.5%
h4-hermonville 21-07-2026 - 01:08 18.5°C / 54%
h2-hermonville 21-07-2026 - 01:04 18.9°C / 54.5%
h1-hermonville 21-07-2026 - 01:04 15.4°C / 66%
h3-hermonville 21-07-2026 - 01:00 17.8°C / 57%
h4-hermonville 21-07-2026 - 00:58 18.6°C / 54%
h2-hermonville 21-07-2026 - 00:54 19.1°C / 53.5%
h1-hermonville 21-07-2026 - 00:54 15.6°C / 65.5%
h3-hermonville 21-07-2026 - 00:50 17.8°C / 57%
h4-hermonville 21-07-2026 - 00:48 18.7°C / 53%
h2-hermonville 21-07-2026 - 00:44 18.9°C / 54.5%
h1-hermonville 21-07-2026 - 00:44 15.6°C / 64.5%
h3-hermonville 21-07-2026 - 00:40 17.8°C / 56%
h4-hermonville 21-07-2026 - 00:38 18.8°C / 52%
h2-hermonville 21-07-2026 - 00:34 19.2°C / 52.5%
h1-hermonville 21-07-2026 - 00:34 15.8°C / 63.5%
h3-hermonville 21-07-2026 - 00:30 17.9°C / 55.5%
h4-hermonville 21-07-2026 - 00:28 18.9°C / 51.5%
h2-hermonville 21-07-2026 - 00:24 19°C / 52.5%
h1-hermonville 21-07-2026 - 00:24 15.9°C / 62.5%
h3-hermonville 21-07-2026 - 00:20 18°C / 55%
h4-hermonville 21-07-2026 - 00:18 19.1°C / 51%
h2-hermonville 21-07-2026 - 00:14 19.5°C / 51%
h1-hermonville 21-07-2026 - 00:14 16°C / 61.5%
h3-hermonville 21-07-2026 - 00:10 18.2°C / 53.5%
h4-hermonville 21-07-2026 - 00:08 19.1°C / 50.5%
h2-hermonville 21-07-2026 - 00:04 19.9°C / 49.5%
h1-hermonville 21-07-2026 - 00:04 16.3°C / 60%
h3-hermonville 21-07-2026 - 00:00 18.3°C / 53%